Portada
METAR-TAF:

METAR-TAF

Aeroports :

Bombai, Índia

latitud: 19-07N, longitud: 072-51E, altitud: 8 m

Observació

L'informe es va fer fa 39 minuts, a les 21:30 UTC
Vent 6 kt del Oest/Nord-Oest
Temperatura 30°C
Humitat 79%
Pressió 1007 hPa
Visibilitat: 5000 m
Núvols disperses a una alçada de 2000 ft
calitja

METAR: VABB 252130Z 30006KT 5000 HZ SCT020 30/26 Q1007 NOSIG

Hora: 03:39 (22:09 UTC)

Pronòstic

L'informe es va fer fa 14 hores i 9 minuts, a les 08:00 UTC
Pronòstic vàlid del 25 a les 09 UTC al 25 a les 18 UTC
Vent 7 kt del Oest amb ràfegues de 17 kt
Visibilitat: 5000 m
Escasses núvols a una alçada de 2000 ft
calitja
Evolucionant progressivament
l' 25 a les 13 UTC al 25 a les 15 UTC
Vent 7 kt del Oest/Nord-Oest
Visibilitat: 4000 m
Núvols disperses a una alçada de 2000 ft
calitja

TAF: VABB 250800Z 2509/2518 27007G17KT 5000 HZ FEW020 BECMG 2513/2515 29007KT 4000 HZ SCT020

Observacions i pronòstics meteorològics de més de 4000 aeroports (METAR i TAF).

Les estacions disponibles són els punts grocs i vermells al mapa.

Posi el ratolí al punt desitjat per veure el nom de l'estació.

Feu clic per veure les observacions i els pronòstics meteorològics.

Per canviar el mapa: feu clic els botons verds amb una creu de color negre per apropar; al botó verd amb un guió per allunyar la imatge; o en les fletxes verdes per a mapes adjacents.


METAR-TAF: